Eurocargo Venezia — IBKS — position and weather

sailwx.info

Track history (hours):
 
Tides and Currents Weather Stations Pressure Air Temp Water Temp Dewpoint Dewpoint Depression Visibility Wind Speed Wind Dir Waves Ship Positions

Eurocargo Venezia

Last reported at 2015-Mar-27 05:20 UTC. Time now 2015-Mar-28 03:58 UTC.
Position N 40°10' E 014°09'.

Length 200 m; draft 7.2 m.

Type: Ship (hazmat cat A). MMSI: 247297200.

Date/timePositionNaut miles runAvg speedWind from/ knotsBaromVisibWave heightAir tempDewpointWater temp
2015-Mar-27 05:20N 40°10' E 014°09'1417.9
2015-Mar-27 04:33N 40°22' E 013°59'1817.7
2015-Mar-27 03:33N 40°36' E 013°45'1817.8
2015-Mar-27 02:33N 40°51' E 013°32'1817.9
2015-Mar-27 01:33N 41°01' E 013°12'18917.2
2015-Mar-26 14:33N 43°18' E 010°17'1414.0
2015-Mar-26 13:34N 43°32' E 010°17'3 2.6
2015-Mar-26 12:33N 43°35' E 010°18'0 0.0
2015-Mar-26 11:33N 43°35' E 010°18'0 0.0
2015-Mar-26 10:33N 43°35' E 010°18'0 0.0
2015-Mar-26 09:33N 43°35' E 010°18'0 0.0
2015-Mar-26 08:33N 43°35' E 010°18'0 0.0
2015-Mar-26 07:33N 43°35' E 010°18'0 0.0
2015-Mar-26 06:33N 43°35' E 010°18'0 0.0
2015-Mar-26 05:33N 43°35' E 010°18'7 6.6
2015-Mar-26 04:33N 43°30' E 010°12'1716.7
2015-Mar-26 03:33N 43°36' E 009°50'1717.3
2015-Mar-26 02:33N 43°49' E 009°35'1818.0
2015-Mar-26 01:33N 44°03' E 009°18'1818.1
2015-Mar-26 00:33N 44°17' E 009°02'10 9.3
2015-Mar-25 23:29N 44°24' E 008°53'0 0.0
2015-Mar-25 22:32N 44°24' E 008°53'0 0.0
2015-Mar-25 21:32N 44°24' E 008°53'0 0.0
2015-Mar-25 20:32N 44°24' E 008°53'0 0.0
2015-Mar-25 19:32N 44°24' E 008°53'0 0.0
2015-Mar-25 18:29N 44°24' E 008°53'0 0.0
2015-Mar-25 17:32N 44°24' E 008°53'0 0.0
2015-Mar-25 16:32N 44°24' E 008°53'0 0.0
2015-Mar-25 15:32N 44°24' E 008°53'0 0.0
2015-Mar-25 14:33N 44°24' E 008°53'1 0.6
2015-Mar-25 13:34N 44°24' E 008°54'1313.1
2015-Mar-25 12:33N 44°14' E 009°06'1818.0
2015-Mar-25 11:33N 44°00' E 009°22'1818.1
2015-Mar-25 10:33N 43°47' E 009°39'1818.3
2015-Mar-25 09:33N 43°33' E 009°56'1818.1
2015-Mar-25 08:33N 43°19' E 010°10'1818.2
2015-Mar-25 07:33N 43°03' E 010°22'18118.1
2015-Mar-24 21:33N 40°58' E 013°18'1817.6
2015-Mar-24 20:34N 40°46' E 013°35'1818.3
2015-Mar-24 19:33N 40°31' E 013°49'1918.5
2015-Mar-24 18:33N 40°16' E 014°04'2418.7
2015-Mar-24 17:17N 39°57' E 014°22'20610.3
2015-Mar-23 21:15N 36°34' E 015°07'3218.8
2015-Mar-23 19:34N 36°08' E 014°44'1717.1
2015-Mar-23 18:33N 35°54' E 014°31'269 9.0
2015-Mar-22 12:33N 40°22' E 013°58'1817.6
2015-Mar-22 11:33N 40°36' E 013°45'1717.7
2015-Mar-22 10:34N 40°50' E 013°32'1817.5
2015-Mar-22 09:32N 41°01' E 013°13'17217.2
2015-Mar-21 23:34N 42°59' E 010°24'1817.6
2015-Mar-21 22:33N 43°15' E 010°13'1817.5
2015-Mar-21 21:34N 43°29' E 009°60'1817.5
2015-Mar-21 20:34N 43°42' E 009°43'1817.6
2015-Mar-21 19:34N 43°55' E 009°27'1817.6
2015-Mar-21 18:34N 44°09' E 009°11'1717.0
2015-Mar-21 17:33N 44°23' E 008°57'3 3.2
2015-Mar-21 16:33N 44°24' E 008°53'0 0.0
2015-Mar-21 15:33N 44°24' E 008°53'0 0.0
2015-Mar-21 14:33N 44°24' E 008°53'0 0.0
2015-Mar-21 13:33N 44°24' E 008°53'0 0.0
2015-Mar-21 12:30N 44°24' E 008°53'0 0.0
2015-Mar-21 11:33N 44°24' E 008°53'0 0.0
2015-Mar-21 10:33N 44°24' E 008°53'0 0.0
2015-Mar-21 09:33N 44°24' E 008°53'0 0.0
2015-Mar-21 08:33N 44°24' E 008°53'0 0.0
2015-Mar-21 07:33N 44°24' E 008°53'0 0.2
2015-Mar-21 06:33N 44°24' E 008°53'9 9.0
2015-Mar-21 05:33N 44°18' E 009°02'1717.1
2015-Mar-21 04:33N 44°05' E 009°17'1818.4
2015-Mar-21 03:33N 43°51' E 009°34'1918.7
2015-Mar-21 02:33N 43°37' E 009°51'1818.4
2015-Mar-21 01:33N 43°22' E 010°07'1818.5
2015-Mar-21 00:33N 43°06' E 010°20'2518.4
2015-Mar-20 23:11N 42°45' E 010°38'3018.1
2015-Mar-20 21:31N 42°22' E 011°05'12618.1
2015-Mar-20 14:32N 41°01' E 013°14'1717.9
2015-Mar-20 13:33N 40°50' E 013°33'1918.4
2015-Mar-20 12:33N 40°35' E 013°46'1918.5
2015-Mar-20 11:32N 40°19' E 014°00'148 3.1
2015-Mar-18 12:17N 38°10' E 015°35'14616.6
2015-Mar-18 03:31N 40°17' E 014°03'1717.7
2015-Mar-18 02:33N 40°31' E 013°50'1817.9
2015-Mar-18 01:33N 40°45' E 013°36'1717.1
2015-Mar-18 00:33N 40°57' E 013°19'20711.5
2015-Mar-17 06:33N 43°35' E 010°18'0 0.0
2015-Mar-17 05:33N 43°35' E 010°18'  
Track history (hours):
 
Tides and Currents Weather Stations Pressure Air Temp Water Temp Dewpoint Dewpoint Depression Visibility Wind Speed Wind Dir Waves Ship Positions

Eurocargo Venezia

Last reported at 2015-Mar-27 05:20 UTC. Time now 2015-Mar-28 03:58 UTC.
Position N 40°10' E 014°09'.

Length 200 m; draft 7.2 m.

Type: Ship (hazmat cat A). MMSI: 247297200.

Date/timePositionNaut miles runAvg speedWind from/ knotsBaromVisibWave heightAir tempDewpointWater temp
2015-Mar-27 05:20N 40°10' E 014°09'1417.9
2015-Mar-27 04:33N 40°22' E 013°59'1817.7
2015-Mar-27 03:33N 40°36' E 013°45'1817.8
2015-Mar-27 02:33N 40°51' E 013°32'1817.9
2015-Mar-27 01:33N 41°01' E 013°12'18917.2
2015-Mar-26 14:33N 43°18' E 010°17'1414.0
2015-Mar-26 13:34N 43°32' E 010°17'3 2.6
2015-Mar-26 12:33N 43°35' E 010°18'0 0.0
2015-Mar-26 11:33N 43°35' E 010°18'0 0.0
2015-Mar-26 10:33N 43°35' E 010°18'0 0.0
2015-Mar-26 09:33N 43°35' E 010°18'0 0.0
2015-Mar-26 08:33N 43°35' E 010°18'0 0.0
2015-Mar-26 07:33N 43°35' E 010°18'0 0.0
2015-Mar-26 06:33N 43°35' E 010°18'0 0.0
2015-Mar-26 05:33N 43°35' E 010°18'7 6.6
2015-Mar-26 04:33N 43°30' E 010°12'1716.7
2015-Mar-26 03:33N 43°36' E 009°50'1717.3
2015-Mar-26 02:33N 43°49' E 009°35'1818.0
2015-Mar-26 01:33N 44°03' E 009°18'1818.1
2015-Mar-26 00:33N 44°17' E 009°02'10 9.3
2015-Mar-25 23:29N 44°24' E 008°53'0 0.0
2015-Mar-25 22:32N 44°24' E 008°53'0 0.0
2015-Mar-25 21:32N 44°24' E 008°53'0 0.0
2015-Mar-25 20:32N 44°24' E 008°53'0 0.0
2015-Mar-25 19:32N 44°24' E 008°53'0 0.0
2015-Mar-25 18:29N 44°24' E 008°53'0 0.0
2015-Mar-25 17:32N 44°24' E 008°53'0 0.0
2015-Mar-25 16:32N 44°24' E 008°53'0 0.0
2015-Mar-25 15:32N 44°24' E 008°53'0 0.0
2015-Mar-25 14:33N 44°24' E 008°53'1 0.6
2015-Mar-25 13:34N 44°24' E 008°54'1313.1
2015-Mar-25 12:33N 44°14' E 009°06'1818.0
2015-Mar-25 11:33N 44°00' E 009°22'1818.1
2015-Mar-25 10:33N 43°47' E 009°39'1818.3
2015-Mar-25 09:33N 43°33' E 009°56'1818.1
2015-Mar-25 08:33N 43°19' E 010°10'1818.2
2015-Mar-25 07:33N 43°03' E 010°22'18118.1
2015-Mar-24 21:33N 40°58' E 013°18'1817.6
2015-Mar-24 20:34N 40°46' E 013°35'1818.3
2015-Mar-24 19:33N 40°31' E 013°49'1918.5
2015-Mar-24 18:33N 40°16' E 014°04'2418.7
2015-Mar-24 17:17N 39°57' E 014°22'20610.3
2015-Mar-23 21:15N 36°34' E 015°07'3218.8
2015-Mar-23 19:34N 36°08' E 014°44'1717.1
2015-Mar-23 18:33N 35°54' E 014°31'269 9.0
2015-Mar-22 12:33N 40°22' E 013°58'1817.6
2015-Mar-22 11:33N 40°36' E 013°45'1717.7
2015-Mar-22 10:34N 40°50' E 013°32'1817.5
2015-Mar-22 09:32N 41°01' E 013°13'17217.2
2015-Mar-21 23:34N 42°59' E 010°24'1817.6
2015-Mar-21 22:33N 43°15' E 010°13'1817.5
2015-Mar-21 21:34N 43°29' E 009°60'1817.5
2015-Mar-21 20:34N 43°42' E 009°43'1817.6
2015-Mar-21 19:34N 43°55' E 009°27'1817.6
2015-Mar-21 18:34N 44°09' E 009°11'1717.0
2015-Mar-21 17:33N 44°23' E 008°57'3 3.2
2015-Mar-21 16:33N 44°24' E 008°53'0 0.0
2015-Mar-21 15:33N 44°24' E 008°53'0 0.0
2015-Mar-21 14:33N 44°24' E 008°53'0 0.0
2015-Mar-21 13:33N 44°24' E 008°53'0 0.0
2015-Mar-21 12:30N 44°24' E 008°53'0 0.0
2015-Mar-21 11:33N 44°24' E 008°53'0 0.0
2015-Mar-21 10:33N 44°24' E 008°53'0 0.0
2015-Mar-21 09:33N 44°24' E 008°53'0 0.0
2015-Mar-21 08:33N 44°24' E 008°53'0 0.0
2015-Mar-21 07:33N 44°24' E 008°53'0 0.2
2015-Mar-21 06:33N 44°24' E 008°53'9 9.0
2015-Mar-21 05:33N 44°18' E 009°02'1717.1
2015-Mar-21 04:33N 44°05' E 009°17'1818.4
2015-Mar-21 03:33N 43°51' E 009°34'1918.7
2015-Mar-21 02:33N 43°37' E 009°51'1818.4
2015-Mar-21 01:33N 43°22' E 010°07'1818.5
2015-Mar-21 00:33N 43°06' E 010°20'2518.4
2015-Mar-20 23:11N 42°45' E 010°38'3018.1
2015-Mar-20 21:31N 42°22' E 011°05'12618.1
2015-Mar-20 14:32N 41°01' E 013°14'1717.9
2015-Mar-20 13:33N 40°50' E 013°33'1918.4
2015-Mar-20 12:33N 40°35' E 013°46'1918.5
2015-Mar-20 11:32N 40°19' E 014°00'148 3.1
2015-Mar-18 12:17N 38°10' E 015°35'14616.6
2015-Mar-18 03:31N 40°17' E 014°03'1717.7
2015-Mar-18 02:33N 40°31' E 013°50'1817.9
2015-Mar-18 01:33N 40°45' E 013°36'1717.1
2015-Mar-18 00:33N 40°57' E 013°19'20711.5
2015-Mar-17 06:33N 43°35' E 010°18'0 0.0
2015-Mar-17 05:33N 43°35' E 010°18'  

Dump ship's entire track history